Gambo, Canada
Current Conditions -  °F | °C
As of 3:00 PM on Thursday 23 Oct 2014 (Local Time) from CYQX Reporting Station
Broken Clouds Broken Clouds  
Wind Chill: 52°   Ceiling: 26000
Heat Index: 52°   Visibility: 20mi
Dew Point: 37°   Wind: 5mph
Humidity: 58%   Direction: 150°SSE
Pressure: 30.29"   Gusts: NA
Location:  48.79°N, 54.21°W
Report Text: CYQX 231700Z 15004KT 140V200 20SM SCT180 BKN260 11/03 A3029 RMK AC4CI3 SC TR SLP261
Loading
Personal Weather Stations






























Interactive Weather Map
Tropical Storm Tracking
New forecast layout! Learn more

10-Day Weather Forecast

Advertisements
Track Severe Weather on mobile